sensor_id;sensor_type;location;lat;lon;timestamp;P1;durP1;ratioP1;P2;durP2;ratioP2
73593;SDS011;64760;53.404;23.498;2023-05-06T00:01:46;4.03;;;1.95;;
73593;SDS011;64760;53.404;23.498;2023-05-06T00:04:12;4.13;;;1.83;;
73593;SDS011;64760;53.404;23.498;2023-05-06T00:06:39;4.82;;;1.77;;
73593;SDS011;64760;53.404;23.498;2023-05-06T00:09:06;4.72;;;1.98;;
73593;SDS011;64760;53.404;23.498;2023-05-06T00:11:33;5.93;;;3.20;;
73593;SDS011;64760;53.404;23.498;2023-05-06T00:13:59;0.73;;;0.65;;
73593;SDS011;64760;53.404;23.498;2023-05-06T00:16:26;5.18;;;2.20;;
73593;SDS011;64760;53.404;23.498;2023-05-06T00:18:52;3.40;;;1.75;;
73593;SDS011;64760;53.404;23.498;2023-05-06T00:21:19;2.90;;;0.95;;
73593;SDS011;64760;53.404;23.498;2023-05-06T00:23:45;4.65;;;1.65;;
73593;SDS011;64760;53.404;23.498;2023-05-06T00:26:12;6.53;;;2.05;;
73593;SDS011;64760;53.404;23.498;2023-05-06T00:28:38;2.90;;;1.25;;
73593;SDS011;64760;53.404;23.498;2023-05-06T00:31:04;3.97;;;1.95;;
73593;SDS011;64760;53.404;23.498;2023-05-06T00:33:31;4.70;;;1.92;;
73593;SDS011;64760;53.404;23.498;2023-05-06T00:35:57;7.28;;;1.90;;
73593;SDS011;64760;53.404;23.498;2023-05-06T00:38:24;5.25;;;1.73;;
73593;SDS011;64760;53.404;23.498;2023-05-06T00:40:51;2.47;;;1.63;;
73593;SDS011;64760;53.404;23.498;2023-05-06T00:43:18;1.95;;;1.25;;
73593;SDS011;64760;53.404;23.498;2023-05-06T00:45:45;4.70;;;1.45;;
73593;SDS011;64760;53.404;23.498;2023-05-06T00:48:13;8.18;;;2.38;;
73593;SDS011;64760;53.404;23.498;2023-05-06T00:50:41;2.60;;;1.25;;
73593;SDS011;64760;53.404;23.498;2023-05-06T00:53:10;3.08;;;1.38;;
73593;SDS011;64760;53.404;23.498;2023-05-06T00:55:36;4.28;;;1.52;;
73593;SDS011;64760;53.404;23.498;2023-05-06T00:58:03;2.28;;;1.10;;
73593;SDS011;64760;53.404;23.498;2023-05-06T01:00:30;5.05;;;2.42;;
73593;SDS011;64760;53.404;23.498;2023-05-06T01:02:57;2.10;;;1.83;;
73593;SDS011;64760;53.404;23.498;2023-05-06T01:05:24;4.53;;;1.17;;
73593;SDS011;64760;53.404;23.498;2023-05-06T01:10:53;4.10;;;1.83;;
73593;SDS011;64760;53.404;23.498;2023-05-06T01:16:06;4.25;;;1.90;;
73593;SDS011;64760;53.404;23.498;2023-05-06T01:18:35;1.95;;;1.20;;
73593;SDS011;64760;53.404;23.498;2023-05-06T01:21:03;5.35;;;1.58;;
73593;SDS011;64760;53.404;23.498;2023-05-06T01:26:22;5.85;;;2.67;;
73593;SDS011;64760;53.404;23.498;2023-05-06T01:28:52;5.72;;;1.48;;
73593;SDS011;64760;53.404;23.498;2023-05-06T01:31:22;3.60;;;1.42;;
73593;SDS011;64760;53.404;23.498;2023-05-06T01:42:25;3.83;;;1.90;;
73593;SDS011;64760;53.404;23.498;2023-05-06T01:44:53;7.18;;;1.85;;
73593;SDS011;64760;53.404;23.498;2023-05-06T01:47:22;3.70;;;1.98;;
73593;SDS011;64760;53.404;23.498;2023-05-06T01:49:49;4.65;;;1.92;;
73593;SDS011;64760;53.404;23.498;2023-05-06T01:52:16;3.20;;;1.35;;
73593;SDS011;64760;53.404;23.498;2023-05-06T01:54:44;2.35;;;1.23;;
73593;SDS011;64760;53.404;23.498;2023-05-06T01:57:10;2.20;;;1.27;;
73593;SDS011;64760;53.404;23.498;2023-05-06T01:59:36;3.17;;;1.27;;
73593;SDS011;64760;53.404;23.498;2023-05-06T02:02:03;3.92;;;2.05;;
73593;SDS011;64760;53.404;23.498;2023-05-06T02:04:29;3.40;;;1.15;;
73593;SDS011;64760;53.404;23.498;2023-05-06T02:06:56;1.73;;;0.85;;
73593;SDS011;64760;53.404;23.498;2023-05-06T02:09:22;8.02;;;2.33;;
73593;SDS011;64760;53.404;23.498;2023-05-06T02:11:54;3.47;;;1.52;;
73593;SDS011;64760;53.404;23.498;2023-05-06T02:14:21;7.97;;;2.35;;
73593;SDS011;64760;53.404;23.498;2023-05-06T02:16:47;3.80;;;1.40;;
73593;SDS011;64760;53.404;23.498;2023-05-06T02:19:14;3.42;;;1.58;;
73593;SDS011;64760;53.404;23.498;2023-05-06T02:21:40;3.10;;;1.67;;
73593;SDS011;64760;53.404;23.498;2023-05-06T02:24:07;5.60;;;1.65;;
73593;SDS011;64760;53.404;23.498;2023-05-06T02:26:33;0.98;;;0.75;;
73593;SDS011;64760;53.404;23.498;2023-05-06T02:29:00;4.18;;;1.60;;
73593;SDS011;64760;53.404;23.498;2023-05-06T02:31:26;3.28;;;1.50;;
73593;SDS011;64760;53.404;23.498;2023-05-06T02:33:52;5.65;;;1.70;;
73593;SDS011;64760;53.404;23.498;2023-05-06T02:36:18;4.80;;;1.80;;
73593;SDS011;64760;53.404;23.498;2023-05-06T02:38:48;1.50;;;0.82;;
73593;SDS011;64760;53.404;23.498;2023-05-06T02:41:14;3.67;;;1.73;;
73593;SDS011;64760;53.404;23.498;2023-05-06T02:43:41;5.43;;;2.17;;
73593;SDS011;64760;53.404;23.498;2023-05-06T02:46:07;1.98;;;1.27;;
73593;SDS011;64760;53.404;23.498;2023-05-06T02:48:34;6.22;;;1.63;;
73593;SDS011;64760;53.404;23.498;2023-05-06T02:51:02;4.45;;;2.00;;
73593;SDS011;64760;53.404;23.498;2023-05-06T02:55:56;2.13;;;1.17;;
73593;SDS011;64760;53.404;23.498;2023-05-06T02:58:22;3.20;;;1.17;;
73593;SDS011;64760;53.404;23.498;2023-05-06T03:00:49;3.13;;;1.67;;
73593;SDS011;64760;53.404;23.498;2023-05-06T03:03:16;3.03;;;1.73;;
73593;SDS011;64760;53.404;23.498;2023-05-06T03:05:43;2.30;;;1.23;;
73593;SDS011;64760;53.404;23.498;2023-05-06T03:08:09;6.07;;;2.13;;
73593;SDS011;64760;53.404;23.498;2023-05-06T03:10:36;6.18;;;2.83;;
73593;SDS011;64760;53.404;23.498;2023-05-06T03:13:03;4.30;;;2.60;;
73593;SDS011;64760;53.404;23.498;2023-05-06T03:15:29;5.55;;;2.45;;
73593;SDS011;64760;53.404;23.498;2023-05-06T03:17:57;15.10;;;5.47;;
73593;SDS011;64760;53.404;23.498;2023-05-06T03:20:24;9.75;;;5.25;;
73593;SDS011;64760;53.404;23.498;2023-05-06T03:22:54;9.70;;;4.38;;
73593;SDS011;64760;53.404;23.498;2023-05-06T03:25:21;7.78;;;4.18;;
73593;SDS011;64760;53.404;23.498;2023-05-06T03:27:48;12.55;;;4.60;;
73593;SDS011;64760;53.404;23.498;2023-05-06T03:30:20;9.13;;;2.75;;
73593;SDS011;64760;53.404;23.498;2023-05-06T03:32:49;9.55;;;2.90;;
73593;SDS011;64760;53.404;23.498;2023-05-06T03:35:22;7.15;;;2.83;;
73593;SDS011;64760;53.404;23.498;2023-05-06T03:37:52;7.22;;;2.55;;
73593;SDS011;64760;53.404;23.498;2023-05-06T03:40:21;5.72;;;2.70;;
73593;SDS011;64760;53.404;23.498;2023-05-06T03:42:48;5.47;;;2.45;;
73593;SDS011;64760;53.404;23.498;2023-05-06T03:45:14;5.28;;;2.47;;
73593;SDS011;64760;53.404;23.498;2023-05-06T03:47:41;8.43;;;2.15;;
73593;SDS011;64760;53.404;23.498;2023-05-06T03:50:08;4.60;;;2.55;;
73593;SDS011;64760;53.404;23.498;2023-05-06T03:52:37;5.63;;;2.45;;
73593;SDS011;64760;53.404;23.498;2023-05-06T03:55:04;4.72;;;2.28;;
73593;SDS011;64760;53.404;23.498;2023-05-06T03:57:31;5.68;;;2.05;;
73593;SDS011;64760;53.404;23.498;2023-05-06T03:59:57;6.85;;;2.42;;
73593;SDS011;64760;53.404;23.498;2023-05-06T04:02:26;3.83;;;1.85;;
73593;SDS011;64760;53.404;23.498;2023-05-06T04:04:54;5.10;;;2.88;;
73593;SDS011;64760;53.404;23.498;2023-05-06T04:07:22;4.55;;;1.90;;
73593;SDS011;64760;53.404;23.498;2023-05-06T04:09:49;5.60;;;2.78;;
73593;SDS011;64760;53.404;23.498;2023-05-06T04:12:17;5.78;;;2.47;;
73593;SDS011;64760;53.404;23.498;2023-05-06T04:14:44;5.20;;;2.17;;
73593;SDS011;64760;53.404;23.498;2023-05-06T04:17:11;5.28;;;2.35;;
73593;SDS011;64760;53.404;23.498;2023-05-06T04:19:37;5.90;;;2.67;;
73593;SDS011;64760;53.404;23.498;2023-05-06T04:22:04;6.93;;;2.80;;
73593;SDS011;64760;53.404;23.498;2023-05-06T04:24:30;5.22;;;2.22;;
73593;SDS011;64760;53.404;23.498;2023-05-06T04:26:56;4.70;;;2.00;;
73593;SDS011;64760;53.404;23.498;2023-05-06T04:29:23;5.78;;;2.72;;
73593;SDS011;64760;53.404;23.498;2023-05-06T04:34:25;6.15;;;2.90;;
73593;SDS011;64760;53.404;23.498;2023-05-06T04:36:54;5.85;;;2.90;;
73593;SDS011;64760;53.404;23.498;2023-05-06T04:39:36;8.15;;;4.65;;
73593;SDS011;64760;53.404;23.498;2023-05-06T04:42:05;9.10;;;3.45;;
73593;SDS011;64760;53.404;23.498;2023-05-06T04:44:39;5.00;;;2.38;;
73593;SDS011;64760;53.404;23.498;2023-05-06T04:47:10;4.13;;;2.28;;
73593;SDS011;64760;53.404;23.498;2023-05-06T04:49:38;6.97;;;3.03;;
73593;SDS011;64760;53.404;23.498;2023-05-06T04:52:06;7.18;;;2.63;;
73593;SDS011;64760;53.404;23.498;2023-05-06T04:54:32;6.80;;;2.95;;
73593;SDS011;64760;53.404;23.498;2023-05-06T04:56:59;8.25;;;2.72;;
73593;SDS011;64760;53.404;23.498;2023-05-06T04:59:27;7.57;;;2.75;;
73593;SDS011;64760;53.404;23.498;2023-05-06T05:01:53;6.18;;;3.03;;
73593;SDS011;64760;53.404;23.498;2023-05-06T05:04:20;5.10;;;2.20;;
73593;SDS011;64760;53.404;23.498;2023-05-06T05:06:47;8.05;;;3.03;;
73593;SDS011;64760;53.404;23.498;2023-05-06T05:09:14;6.65;;;2.97;;
73593;SDS011;64760;53.404;23.498;2023-05-06T05:11:43;10.18;;;3.38;;
73593;SDS011;64760;53.404;23.498;2023-05-06T05:14:09;9.32;;;3.10;;
73593;SDS011;64760;53.404;23.498;2023-05-06T05:16:36;7.28;;;3.38;;
73593;SDS011;64760;53.404;23.498;2023-05-06T05:19:03;6.78;;;2.85;;
73593;SDS011;64760;53.404;23.498;2023-05-06T05:21:38;11.85;;;4.13;;
73593;SDS011;64760;53.404;23.498;2023-05-06T05:24:18;9.75;;;4.00;;
73593;SDS011;64760;53.404;23.498;2023-05-06T05:26:52;8.40;;;3.53;;
73593;SDS011;64760;53.404;23.498;2023-05-06T05:29:24;7.78;;;3.50;;
73593;SDS011;64760;53.404;23.498;2023-05-06T05:31:51;6.95;;;3.63;;
73593;SDS011;64760;53.404;23.498;2023-05-06T05:34:17;8.63;;;4.43;;
73593;SDS011;64760;53.404;23.498;2023-05-06T05:36:44;7.80;;;3.60;;
73593;SDS011;64760;53.404;23.498;2023-05-06T05:39:13;8.88;;;3.90;;
73593;SDS011;64760;53.404;23.498;2023-05-06T05:41:44;9.00;;;4.18;;
73593;SDS011;64760;53.404;23.498;2023-05-06T05:44:11;9.48;;;4.32;;
73593;SDS011;64760;53.404;23.498;2023-05-06T05:49:05;10.48;;;4.57;;
73593;SDS011;64760;53.404;23.498;2023-05-06T05:51:32;11.25;;;5.07;;
73593;SDS011;64760;53.404;23.498;2023-05-06T05:54:02;13.95;;;5.97;;
73593;SDS011;64760;53.404;23.498;2023-05-06T05:56:28;10.75;;;4.82;;
73593;SDS011;64760;53.404;23.498;2023-05-06T05:58:54;11.05;;;5.47;;
73593;SDS011;64760;53.404;23.498;2023-05-06T06:01:21;13.60;;;5.85;;
73593;SDS011;64760;53.404;23.498;2023-05-06T06:03:48;10.25;;;4.60;;
73593;SDS011;64760;53.404;23.498;2023-05-06T06:06:15;11.50;;;5.13;;
73593;SDS011;64760;53.404;23.498;2023-05-06T06:08:41;11.57;;;5.50;;
73593;SDS011;64760;53.404;23.498;2023-05-06T06:11:09;11.55;;;6.13;;
73593;SDS011;64760;53.404;23.498;2023-05-06T06:13:39;12.13;;;5.45;;
73593;SDS011;64760;53.404;23.498;2023-05-06T06:16:07;14.48;;;5.47;;
73593;SDS011;64760;53.404;23.498;2023-05-06T06:18:33;14.52;;;6.63;;
73593;SDS011;64760;53.404;23.498;2023-05-06T06:21:00;9.63;;;4.97;;
73593;SDS011;64760;53.404;23.498;2023-05-06T06:23:26;9.50;;;3.83;;
73593;SDS011;64760;53.404;23.498;2023-05-06T06:25:52;11.43;;;5.35;;
73593;SDS011;64760;53.404;23.498;2023-05-06T06:28:20;9.90;;;4.93;;
73593;SDS011;64760;53.404;23.498;2023-05-06T06:30:46;9.25;;;5.03;;
73593;SDS011;64760;53.404;23.498;2023-05-06T06:33:13;5.75;;;3.17;;
73593;SDS011;64760;53.404;23.498;2023-05-06T06:35:39;12.25;;;5.15;;
73593;SDS011;64760;53.404;23.498;2023-05-06T06:38:06;9.35;;;4.32;;
73593;SDS011;64760;53.404;23.498;2023-05-06T06:40:32;10.30;;;4.70;;
73593;SDS011;64760;53.404;23.498;2023-05-06T06:42:58;7.43;;;4.13;;
73593;SDS011;64760;53.404;23.498;2023-05-06T06:45:46;6.65;;;3.67;;
73593;SDS011;64760;53.404;23.498;2023-05-06T06:48:12;7.47;;;4.25;;
73593;SDS011;64760;53.404;23.498;2023-05-06T06:50:39;7.90;;;3.83;;
73593;SDS011;64760;53.404;23.498;2023-05-06T06:53:05;6.50;;;3.17;;
73593;SDS011;64760;53.404;23.498;2023-05-06T06:55:32;7.50;;;4.05;;
73593;SDS011;64760;53.404;23.498;2023-05-06T06:57:58;6.60;;;3.38;;
73593;SDS011;64760;53.404;23.498;2023-05-06T07:00:24;5.50;;;3.03;;
73593;SDS011;64760;53.404;23.498;2023-05-06T07:02:51;8.25;;;3.47;;
73593;SDS011;64760;53.404;23.498;2023-05-06T07:05:17;5.43;;;2.78;;
73593;SDS011;64760;53.404;23.498;2023-05-06T07:07:43;6.55;;;3.25;;
73593;SDS011;64760;53.404;23.498;2023-05-06T07:10:10;9.55;;;3.10;;
73593;SDS011;64760;53.404;23.498;2023-05-06T07:12:36;6.30;;;3.15;;
73593;SDS011;64760;53.404;23.498;2023-05-06T07:15:03;5.38;;;2.75;;
73593;SDS011;64760;53.404;23.498;2023-05-06T07:17:31;6.18;;;2.60;;
73593;SDS011;64760;53.404;23.498;2023-05-06T07:19:58;5.35;;;2.35;;
73593;SDS011;64760;53.404;23.498;2023-05-06T07:22:26;4.45;;;2.47;;
73593;SDS011;64760;53.404;23.498;2023-05-06T07:24:54;6.13;;;3.10;;
73593;SDS011;64760;53.404;23.498;2023-05-06T07:27:20;6.53;;;3.63;;
73593;SDS011;64760;53.404;23.498;2023-05-06T07:29:47;5.55;;;3.33;;
73593;SDS011;64760;53.404;23.498;2023-05-06T07:32:13;6.28;;;2.92;;
73593;SDS011;64760;53.404;23.498;2023-05-06T07:34:40;6.15;;;2.90;;
73593;SDS011;64760;53.404;23.498;2023-05-06T07:37:06;4.07;;;2.33;;
73593;SDS011;64760;53.404;23.498;2023-05-06T07:39:33;5.82;;;2.42;;
73593;SDS011;64760;53.404;23.498;2023-05-06T07:41:59;5.88;;;3.53;;
73593;SDS011;64760;53.404;23.498;2023-05-06T07:44:26;5.25;;;3.00;;
73593;SDS011;64760;53.404;23.498;2023-05-06T07:46:53;5.43;;;3.25;;
73593;SDS011;64760;53.404;23.498;2023-05-06T07:49:19;5.65;;;2.65;;
73593;SDS011;64760;53.404;23.498;2023-05-06T07:51:45;4.97;;;2.88;;
73593;SDS011;64760;53.404;23.498;2023-05-06T07:54:12;6.53;;;3.50;;
73593;SDS011;64760;53.404;23.498;2023-05-06T07:56:38;6.68;;;3.28;;
73593;SDS011;64760;53.404;23.498;2023-05-06T07:59:05;5.07;;;3.25;;
73593;SDS011;64760;53.404;23.498;2023-05-06T08:01:32;5.35;;;3.00;;
73593;SDS011;64760;53.404;23.498;2023-05-06T08:03:59;5.45;;;2.90;;
73593;SDS011;64760;53.404;23.498;2023-05-06T08:06:25;6.10;;;3.17;;
73593;SDS011;64760;53.404;23.498;2023-05-06T08:08:52;6.75;;;3.80;;
73593;SDS011;64760;53.404;23.498;2023-05-06T08:11:18;6.78;;;3.42;;
73593;SDS011;64760;53.404;23.498;2023-05-06T08:13:45;6.95;;;3.05;;
73593;SDS011;64760;53.404;23.498;2023-05-06T08:16:11;5.05;;;2.88;;
73593;SDS011;64760;53.404;23.498;2023-05-06T08:18:39;7.13;;;2.90;;
73593;SDS011;64760;53.404;23.498;2023-05-06T08:21:05;6.28;;;3.22;;
73593;SDS011;64760;53.404;23.498;2023-05-06T08:23:32;5.18;;;2.90;;
73593;SDS011;64760;53.404;23.498;2023-05-06T08:25:58;8.10;;;3.33;;
73593;SDS011;64760;53.404;23.498;2023-05-06T08:28:24;5.95;;;3.08;;
73593;SDS011;64760;53.404;23.498;2023-05-06T08:30:51;5.10;;;2.83;;
73593;SDS011;64760;53.404;23.498;2023-05-06T08:33:17;5.15;;;2.88;;
73593;SDS011;64760;53.404;23.498;2023-05-06T08:35:45;7.55;;;2.83;;
73593;SDS011;64760;53.404;23.498;2023-05-06T08:38:13;5.05;;;2.33;;
73593;SDS011;64760;53.404;23.498;2023-05-06T08:43:25;5.47;;;2.95;;
73593;SDS011;64760;53.404;23.498;2023-05-06T08:45:54;7.38;;;2.50;;
73593;SDS011;64760;53.404;23.498;2023-05-06T08:48:22;5.78;;;2.35;;
73593;SDS011;64760;53.404;23.498;2023-05-06T08:53:16;5.50;;;2.60;;
73593;SDS011;64760;53.404;23.498;2023-05-06T08:55:42;6.35;;;2.80;;
73593;SDS011;64760;53.404;23.498;2023-05-06T08:58:10;3.95;;;2.35;;
73593;SDS011;64760;53.404;23.498;2023-05-06T09:00:38;4.20;;;2.50;;
73593;SDS011;64760;53.404;23.498;2023-05-06T09:03:05;5.90;;;2.78;;
73593;SDS011;64760;53.404;23.498;2023-05-06T09:05:32;7.25;;;3.83;;
73593;SDS011;64760;53.404;23.498;2023-05-06T09:08:00;4.80;;;2.40;;
73593;SDS011;64760;53.404;23.498;2023-05-06T09:12:58;5.28;;;2.47;;
73593;SDS011;64760;53.404;23.498;2023-05-06T09:15:25;5.25;;;2.70;;
73593;SDS011;64760;53.404;23.498;2023-05-06T09:17:52;7.03;;;3.35;;
73593;SDS011;64760;53.404;23.498;2023-05-06T09:20:20;4.65;;;2.40;;
73593;SDS011;64760;53.404;23.498;2023-05-06T09:22:46;4.97;;;2.60;;
73593;SDS011;64760;53.404;23.498;2023-05-06T09:25:13;4.93;;;2.35;;
73593;SDS011;64760;53.404;23.498;2023-05-06T09:27:39;5.05;;;2.70;;
73593;SDS011;64760;53.404;23.498;2023-05-06T09:30:06;5.22;;;2.97;;
73593;SDS011;64760;53.404;23.498;2023-05-06T09:32:37;6.22;;;2.95;;
73593;SDS011;64760;53.404;23.498;2023-05-06T09:35:04;5.50;;;2.63;;
73593;SDS011;64760;53.404;23.498;2023-05-06T09:37:30;3.58;;;2.08;;
73593;SDS011;64760;53.404;23.498;2023-05-06T09:40:00;5.63;;;2.80;;
73593;SDS011;64760;53.404;23.498;2023-05-06T09:42:27;4.70;;;2.33;;
73593;SDS011;64760;53.404;23.498;2023-05-06T09:44:57;4.63;;;2.20;;
73593;SDS011;64760;53.404;23.498;2023-05-06T09:47:25;5.47;;;2.70;;
73593;SDS011;64760;53.404;23.498;2023-05-06T09:49:56;4.40;;;2.50;;
73593;SDS011;64760;53.404;23.498;2023-05-06T09:52:27;4.55;;;2.50;;
73593;SDS011;64760;53.404;23.498;2023-05-06T09:54:54;4.20;;;2.50;;
73593;SDS011;64760;53.404;23.498;2023-05-06T09:57:21;5.00;;;2.58;;
73593;SDS011;64760;53.404;23.498;2023-05-06T09:59:49;4.53;;;2.50;;
73593;SDS011;64760;53.404;23.498;2023-05-06T10:02:19;3.75;;;2.40;;
73593;SDS011;64760;53.404;23.498;2023-05-06T10:04:47;4.60;;;2.70;;
73593;SDS011;64760;53.404;23.498;2023-05-06T10:07:14;4.93;;;2.55;;
73593;SDS011;64760;53.404;23.498;2023-05-06T10:09:45;6.00;;;2.53;;
73593;SDS011;64760;53.404;23.498;2023-05-06T10:12:14;5.80;;;2.88;;
73593;SDS011;64760;53.404;23.498;2023-05-06T10:14:41;4.95;;;2.30;;
73593;SDS011;64760;53.404;23.498;2023-05-06T10:17:08;4.40;;;2.30;;
73593;SDS011;64760;53.404;23.498;2023-05-06T10:19:41;3.88;;;2.00;;
73593;SDS011;64760;53.404;23.498;2023-05-06T10:28:04;4.57;;;2.95;;
73593;SDS011;64760;53.404;23.498;2023-05-06T10:30:32;6.22;;;3.22;;
73593;SDS011;64760;53.404;23.498;2023-05-06T10:33:02;6.90;;;3.10;;
73593;SDS011;64760;53.404;23.498;2023-05-06T10:41:07;7.25;;;3.65;;
73593;SDS011;64760;53.404;23.498;2023-05-06T10:43:38;6.50;;;2.78;;
73593;SDS011;64760;53.404;23.498;2023-05-06T10:53:59;7.20;;;3.22;;
73593;SDS011;64760;53.404;23.498;2023-05-06T10:56:30;5.80;;;3.05;;
73593;SDS011;64760;53.404;23.498;2023-05-06T10:59:01;5.20;;;2.95;;
73593;SDS011;64760;53.404;23.498;2023-05-06T11:01:36;8.68;;;3.60;;
73593;SDS011;64760;53.404;23.498;2023-05-06T11:04:10;5.88;;;3.13;;
73593;SDS011;64760;53.404;23.498;2023-05-06T11:06:40;5.70;;;2.53;;
73593;SDS011;64760;53.404;23.498;2023-05-06T11:09:26;6.63;;;3.05;;
73593;SDS011;64760;53.404;23.498;2023-05-06T11:17:01;6.00;;;2.97;;
73593;SDS011;64760;53.404;23.498;2023-05-06T11:19:33;7.15;;;3.15;;
73593;SDS011;64760;53.404;23.498;2023-05-06T11:22:01;6.50;;;3.83;;
73593;SDS011;64760;53.404;23.498;2023-05-06T11:26:58;5.18;;;2.83;;
73593;SDS011;64760;53.404;23.498;2023-05-06T11:29:25;7.78;;;3.33;;
73593;SDS011;64760;53.404;23.498;2023-05-06T11:31:52;5.10;;;2.63;;
73593;SDS011;64760;53.404;23.498;2023-05-06T11:34:28;7.50;;;3.08;;
73593;SDS011;64760;53.404;23.498;2023-05-06T11:36:57;5.68;;;3.30;;
73593;SDS011;64760;53.404;23.498;2023-05-06T11:39:27;6.03;;;2.83;;
73593;SDS011;64760;53.404;23.498;2023-05-06T11:41:58;5.97;;;2.67;;
73593;SDS011;64760;53.404;23.498;2023-05-06T11:44:25;6.35;;;2.47;;
73593;SDS011;64760;53.404;23.498;2023-05-06T11:46:57;4.15;;;2.30;;
73593;SDS011;64760;53.404;23.498;2023-05-06T11:49:24;5.10;;;2.60;;
73593;SDS011;64760;53.404;23.498;2023-05-06T11:51:52;5.90;;;2.88;;
73593;SDS011;64760;53.404;23.498;2023-05-06T11:54:21;4.68;;;2.65;;
73593;SDS011;64760;53.404;23.498;2023-05-06T11:56:50;6.45;;;2.58;;
73593;SDS011;64760;53.404;23.498;2023-05-06T11:59:34;4.25;;;2.42;;
73593;SDS011;64760;53.404;23.498;2023-05-06T12:02:06;7.53;;;3.45;;
73593;SDS011;64760;53.404;23.498;2023-05-06T12:07:11;8.15;;;2.92;;
73593;SDS011;64760;53.404;23.498;2023-05-06T12:09:40;4.97;;;2.42;;
73593;SDS011;64760;53.404;23.498;2023-05-06T12:12:09;4.20;;;2.60;;
73593;SDS011;64760;53.404;23.498;2023-05-06T12:14:37;6.47;;;2.90;;
73593;SDS011;64760;53.404;23.498;2023-05-06T12:17:04;6.72;;;2.78;;
73593;SDS011;64760;53.404;23.498;2023-05-06T12:19:31;7.80;;;2.65;;
73593;SDS011;64760;53.404;23.498;2023-05-06T12:22:17;6.95;;;2.75;;
73593;SDS011;64760;53.404;23.498;2023-05-06T12:24:47;7.00;;;3.00;;
73593;SDS011;64760;53.404;23.498;2023-05-06T12:27:26;5.65;;;3.33;;
73593;SDS011;64760;53.404;23.498;2023-05-06T12:30:01;3.28;;;2.20;;
73593;SDS011;64760;53.404;23.498;2023-05-06T12:32:31;4.22;;;2.38;;
73593;SDS011;64760;53.404;23.498;2023-05-06T12:34:57;5.38;;;2.78;;
73593;SDS011;64760;53.404;23.498;2023-05-06T12:37:28;3.78;;;2.17;;
73593;SDS011;64760;53.404;23.498;2023-05-06T12:39:55;3.95;;;2.22;;
73593;SDS011;64760;53.404;23.498;2023-05-06T12:42:22;4.85;;;2.45;;
73593;SDS011;64760;53.404;23.498;2023-05-06T12:44:48;6.45;;;2.47;;
73593;SDS011;64760;53.404;23.498;2023-05-06T12:52:14;5.78;;;2.45;;
73593;SDS011;64760;53.404;23.498;2023-05-06T12:54:41;4.55;;;2.50;;
73593;SDS011;64760;53.404;23.498;2023-05-06T12:57:07;6.60;;;3.47;;
73593;SDS011;64760;53.404;23.498;2023-05-06T12:59:35;5.75;;;2.97;;
73593;SDS011;64760;53.404;23.498;2023-05-06T13:02:02;5.35;;;2.60;;
73593;SDS011;64760;53.404;23.498;2023-05-06T13:04:29;8.38;;;2.40;;
73593;SDS011;64760;53.404;23.498;2023-05-06T13:06:56;4.90;;;2.80;;
73593;SDS011;64760;53.404;23.498;2023-05-06T13:09:23;4.43;;;2.10;;
73593;SDS011;64760;53.404;23.498;2023-05-06T13:11:50;5.50;;;2.40;;
73593;SDS011;64760;53.404;23.498;2023-05-06T13:14:16;5.60;;;2.90;;
73593;SDS011;64760;53.404;23.498;2023-05-06T13:16:43;5.53;;;2.60;;
73593;SDS011;64760;53.404;23.498;2023-05-06T13:19:10;4.60;;;2.60;;
73593;SDS011;64760;53.404;23.498;2023-05-06T13:21:37;4.85;;;2.85;;
73593;SDS011;64760;53.404;23.498;2023-05-06T13:24:04;5.30;;;2.92;;
73593;SDS011;64760;53.404;23.498;2023-05-06T13:26:33;5.10;;;3.25;;
73593;SDS011;64760;53.404;23.498;2023-05-06T13:29:01;6.03;;;2.88;;
73593;SDS011;64760;53.404;23.498;2023-05-06T13:31:28;4.55;;;2.42;;
73593;SDS011;64760;53.404;23.498;2023-05-06T13:33:54;5.35;;;2.38;;
73593;SDS011;64760;53.404;23.498;2023-05-06T13:38:49;5.00;;;2.67;;
73593;SDS011;64760;53.404;23.498;2023-05-06T13:41:15;5.53;;;3.10;;
73593;SDS011;64760;53.404;23.498;2023-05-06T13:43:42;5.88;;;3.10;;
73593;SDS011;64760;53.404;23.498;2023-05-06T13:46:08;18.48;;;7.03;;
73593;SDS011;64760;53.404;23.498;2023-05-06T13:48:34;7.88;;;4.20;;
73593;SDS011;64760;53.404;23.498;2023-05-06T13:51:01;5.05;;;2.75;;
73593;SDS011;64760;53.404;23.498;2023-05-06T13:53:28;8.68;;;3.00;;
73593;SDS011;64760;53.404;23.498;2023-05-06T13:55:55;5.75;;;2.72;;
73593;SDS011;64760;53.404;23.498;2023-05-06T13:58:21;7.80;;;3.17;;
73593;SDS011;64760;53.404;23.498;2023-05-06T14:00:47;4.82;;;2.80;;
73593;SDS011;64760;53.404;23.498;2023-05-06T14:03:14;5.93;;;2.53;;
73593;SDS011;64760;53.404;23.498;2023-05-06T14:05:40;3.88;;;2.22;;
73593;SDS011;64760;53.404;23.498;2023-05-06T14:08:06;7.88;;;2.80;;
73593;SDS011;64760;53.404;23.498;2023-05-06T14:10:33;5.00;;;2.47;;
73593;SDS011;64760;53.404;23.498;2023-05-06T14:13:00;4.13;;;2.40;;
73593;SDS011;64760;53.404;23.498;2023-05-06T14:15:26;5.78;;;3.17;;
73593;SDS011;64760;53.404;23.498;2023-05-06T14:17:52;6.07;;;2.78;;
73593;SDS011;64760;53.404;23.498;2023-05-06T14:20:21;8.48;;;3.65;;
73593;SDS011;64760;53.404;23.498;2023-05-06T14:22:48;8.82;;;3.42;;
73593;SDS011;64760;53.404;23.498;2023-05-06T14:25:14;6.10;;;3.30;;
73593;SDS011;64760;53.404;23.498;2023-05-06T14:27:41;11.90;;;4.57;;
73593;SDS011;64760;53.404;23.498;2023-05-06T14:30:07;7.47;;;3.10;;
73593;SDS011;64760;53.404;23.498;2023-05-06T14:32:34;6.05;;;2.85;;
73593;SDS011;64760;53.404;23.498;2023-05-06T14:35:01;5.60;;;2.25;;
73593;SDS011;64760;53.404;23.498;2023-05-06T14:37:27;6.03;;;2.72;;
73593;SDS011;64760;53.404;23.498;2023-05-06T14:39:55;8.57;;;3.60;;
73593;SDS011;64760;53.404;23.498;2023-05-06T14:42:23;5.30;;;2.72;;
73593;SDS011;64760;53.404;23.498;2023-05-06T14:47:17;8.27;;;3.10;;
73593;SDS011;64760;53.404;23.498;2023-05-06T14:49:44;7.15;;;3.38;;
73593;SDS011;64760;53.404;23.498;2023-05-06T14:52:10;5.30;;;2.67;;
73593;SDS011;64760;53.404;23.498;2023-05-06T14:54:37;5.45;;;2.92;;
73593;SDS011;64760;53.404;23.498;2023-05-06T14:57:07;5.35;;;2.85;;
73593;SDS011;64760;53.404;23.498;2023-05-06T14:59:34;11.90;;;5.18;;
73593;SDS011;64760;53.404;23.498;2023-05-06T15:02:01;15.80;;;6.32;;
73593;SDS011;64760;53.404;23.498;2023-05-06T15:04:28;11.45;;;5.65;;
73593;SDS011;64760;53.404;23.498;2023-05-06T15:06:54;14.73;;;6.57;;
73593;SDS011;64760;53.404;23.498;2023-05-06T15:09:23;11.38;;;4.90;;
73593;SDS011;64760;53.404;23.498;2023-05-06T15:11:50;25.45;;;9.20;;
73593;SDS011;64760;53.404;23.498;2023-05-06T15:14:16;17.63;;;7.28;;
73593;SDS011;64760;53.404;23.498;2023-05-06T15:16:43;22.38;;;8.25;;
73593;SDS011;64760;53.404;23.498;2023-05-06T15:19:09;11.43;;;5.10;;
73593;SDS011;64760;53.404;23.498;2023-05-06T15:21:35;14.55;;;5.60;;
73593;SDS011;64760;53.404;23.498;2023-05-06T15:24:02;14.80;;;5.85;;
73593;SDS011;64760;53.404;23.498;2023-05-06T15:26:29;26.80;;;9.48;;
73593;SDS011;64760;53.404;23.498;2023-05-06T15:28:55;21.17;;;8.05;;
73593;SDS011;64760;53.404;23.498;2023-05-06T15:31:22;7.13;;;3.95;;
73593;SDS011;64760;53.404;23.498;2023-05-06T15:33:48;12.90;;;6.10;;
73593;SDS011;64760;53.404;23.498;2023-05-06T15:36:14;11.35;;;5.75;;
73593;SDS011;64760;53.404;23.498;2023-05-06T15:41:13;8.57;;;4.10;;
73593;SDS011;64760;53.404;23.498;2023-05-06T15:43:40;6.72;;;3.58;;
73593;SDS011;64760;53.404;23.498;2023-05-06T15:46:07;7.30;;;3.20;;
73593;SDS011;64760;53.404;23.498;2023-05-06T15:48:33;12.52;;;3.70;;
73593;SDS011;64760;53.404;23.498;2023-05-06T15:51:01;5.15;;;3.13;;